Time;durP1;ratioP1;P1;durP2;ratioP2;P2;SDS_P1;SDS_P2;PMS_P1;PMS_P2;Temp;Humidity;BMP_temperature;BMP_pressure;BME280_temperature;BME280_humidity;BME280_pressure;Samples;Min_cycle;Max_cycle;Signal;HPM_P1;HPM_P2
2020/12/06 00:00:09;;;;;;;22.87;9.40;;;;;;;-3.55;48.77;102761.45;1757787;80;20991;-76
2020/12/06 00:02:37;;;;;;;26.50;11.40;;;;;;;-3.55;48.63;102781.55;1757683;80;21185;-75
2020/12/06 00:05:07;;;;;;;26.30;11.38;;;;;;;-3.58;48.80;102785.30;1757750;80;21461;-75
2020/12/06 00:07:39;;;;;;;20.25;9.88;;;;;;;-3.61;48.63;102778.77;1757800;80;21043;-75
2020/12/06 00:10:08;;;;;;;14.00;6.55;;;;;;;-3.68;48.58;102786.22;1757677;80;21583;-76
2020/12/06 00:12:38;;;;;;;17.30;5.53;;;;;;;-3.73;48.75;102790.30;1757764;80;21054;-74
2020/12/06 00:15:08;;;;;;;15.20;5.75;;;;;;;-3.75;48.77;102796.67;1757690;80;22091;-73
2020/12/06 00:17:36;;;;;;;13.20;4.87;;;;;;;-3.77;48.95;102794.05;1757713;80;21608;-74
2020/12/06 00:20:09;;;;;;;9.63;4.55;;;;;;;-3.77;48.97;102790.62;1757673;80;21357;-74
2020/12/06 00:22:38;;;;;;;10.35;4.15;;;;;;;-3.75;48.79;102779.59;1757858;80;21472;-75
2020/12/06 00:25:06;;;;;;;12.07;5.00;;;;;;;-3.77;48.95;102795.33;1738269;81;21045;-75
2020/12/06 00:27:34;;;;;;;7.65;4.67;;;;;;;-3.79;48.65;102776.88;1675788;84;21156;-76
2020/12/06 00:30:09;;;;;;;9.78;5.80;;;;;;;-3.78;48.77;102782.45;1675662;84;20963;-76
2020/12/06 00:32:37;;;;;;;;;;;;;;;-3.78;48.73;102777.33;1677132;84;21408;-75
2020/12/06 00:35:07;;;;;;;13.00;5.20;;;;;;;-3.77;48.51;102791.91;1675874;84;20147;-76
2020/12/06 00:37:37;;;;;;;9.73;4.17;;;;;;;-3.79;48.55;102789.70;1675924;84;20989;-75
2020/12/06 00:40:07;;;;;;;8.63;4.50;;;;;;;-3.83;48.50;102781.02;1676123;84;22229;-76
2020/12/06 00:42:36;;;;;;;10.98;4.55;;;;;;;-3.84;48.63;102792.11;1675729;84;21574;-77
2020/12/06 00:45:06;;;;;;;10.85;5.45;;;;;;;-3.87;48.64;102783.42;1675691;84;21012;-75
2020/12/06 00:47:37;;;;;;;10.93;4.90;;;;;;;-3.91;48.70;102779.01;1675802;84;20971;-76
2020/12/06 00:50:07;;;;;;;16.93;7.33;;;;;;;-3.94;48.98;102777.22;1675891;84;21095;-75
2020/12/06 00:52:36;;;;;;;21.23;10.13;;;;;;;-3.98;49.04;102788.17;1675696;84;21024;-75
2020/12/06 00:55:05;;;;;;;21.12;8.15;;;;;;;-4.00;49.11;102772.77;1675664;84;21040;-75
2020/12/06 00:57:34;;;;;;;23.67;9.70;;;;;;;-4.01;49.25;102776.55;1675780;84;21106;-75
2020/12/06 01:00:08;;;;;;;27.30;10.32;;;;;;;-4.03;49.50;102777.77;1675862;84;21498;-75
2020/12/06 01:02:36;;;;;;;24.07;8.88;;;;;;;-4.03;49.49;102768.80;1675934;84;21013;-76
2020/12/06 01:05:05;;;;;;;18.27;6.22;;;;;;;-4.00;49.60;102770.62;1675837;84;22073;-77
2020/12/06 01:07:38;;;;;;;11.25;5.33;;;;;;;-3.99;49.39;102777.06;1675732;84;21084;-78
2020/12/06 01:10:08;;;;;;;17.07;5.97;;;;;;;-3.98;49.38;102781.38;1675847;84;20969;-77
2020/12/06 01:12:37;;;;;;;21.05;6.87;;;;;;;-4.01;49.33;102770.14;1675913;84;21052;-77
2020/12/06 01:15:06;;;;;;;16.42;7.25;;;;;;;-4.04;49.33;102775.17;1675808;84;20989;-75
2020/12/06 01:17:35;;;;;;;22.02;9.20;;;;;;;-4.08;49.48;102763.93;1675994;84;21012;-75
2020/12/06 01:20:06;;;;;;;20.57;9.30;;;;;;;-4.09;49.50;102759.64;1676008;84;21590;-76
2020/12/06 01:22:35;;;;;;;28.07;9.50;;;;;;;-4.12;49.42;102765.05;1675908;84;20997;-75
2020/12/06 01:25:05;;;;;;;31.00;10.63;;;;;;;-4.16;49.63;102766.63;1701785;83;21432;-76
2020/12/06 01:27:37;;;;;;;26.25;10.88;;;;;;;-4.19;49.61;102767.81;1675903;80;21050;31
2020/12/06 01:30:06;;;;;;;22.10;9.23;;;;;;;-4.24;49.83;102764.22;1778709;79;21068;-78
2020/12/06 01:32:34;;;;;;;14.43;6.58;;;;;;;-4.25;49.95;102758.20;1779206;79;20969;-76
2020/12/06 01:35:03;;;;;;;16.62;6.40;;;;;;;-4.22;49.91;102762.17;1779255;79;20942;-76
2020/12/06 01:37:32;;;;;;;12.25;5.17;;;;;;;-4.24;49.77;102765.50;1779340;79;21364;-76
2020/12/06 01:40:00;;;;;;;8.18;4.40;;;;;;;-4.26;49.97;102765.85;1779277;80;20957;-75
2020/12/06 01:42:28;;;;;;;12.37;6.00;;;;;;;-4.31;50.08;102773.38;1779241;79;20985;-78
2020/12/06 01:44:59;;;;;;;11.53;5.15;;;;;;;-4.34;50.07;102769.40;1779231;79;21029;-75
2020/12/06 01:47:28;;;;;;;12.85;5.00;;;;;;;-4.35;50.29;102773.21;1779486;79;21061;-76
2020/12/06 01:49:56;;;;;;;15.05;6.25;;;;;;;-4.37;50.39;102767.61;1779256;79;21005;-75
2020/12/06 01:52:29;;;;;;;10.70;5.08;;;;;;;-4.33;50.47;102780.13;1779408;79;21316;-75
2020/12/06 01:54:57;;;;;;;14.00;5.97;;;;;;;-4.32;50.25;102772.03;1779830;79;21930;-75
2020/12/06 01:57:25;;;;;;;13.13;5.58;;;;;;;-4.35;50.36;102766.39;1785860;80;20934;-75
2020/12/06 01:59:56;;;;;;;11.10;5.50;;;;;;;-4.34;50.33;102777.08;1779218;79;20954;-77
2020/12/06 02:02:24;;;;;;;14.23;5.72;;;;;;;-4.35;50.32;102771.52;1779314;79;21404;-75
2020/12/06 02:04:53;;;;;;;16.20;6.30;;;;;;;-4.40;50.35;102773.91;1779438;80;21389;-76
2020/12/06 02:07:21;;;;;;;11.80;5.55;;;;;;;-4.42;50.33;102777.23;1779202;79;21620;-76
2020/12/06 02:09:49;;;;;;;13.60;7.12;;;;;;;-4.42;50.49;102777.23;1779127;80;20969;-76
2020/12/06 02:12:17;;;;;;;16.00;7.65;;;;;;;-4.44;50.47;102770.77;1779312;79;21432;-76
2020/12/06 02:14:45;;;;;;;21.07;7.83;;;;;;;-4.43;50.67;102776.75;1779321;80;21482;-75
2020/12/06 02:17:13;;;;;;;15.93;6.28;;;;;;;-4.38;50.54;102772.28;1779251;79;20902;-77
2020/12/06 02:19:42;;;;;;;13.98;6.28;;;;;;;-4.37;50.08;102776.98;1779399;79;21161;-77
2020/12/06 02:22:10;;;;;;;12.30;6.90;;;;;;;-4.43;50.06;102780.18;1779283;79;21459;-77
2020/12/06 02:24:38;;;;;;;13.38;7.05;;;;;;;-4.46;50.64;102778.80;1779250;79;21098;-76
2020/12/06 02:27:06;;;;;;;12.58;5.70;;;;;;;-4.46;50.79;102777.52;1779188;79;21017;-78
2020/12/06 02:29:34;;;;;;;11.33;6.00;;;;;;;-4.43;50.89;102773.78;1788029;80;21132;-75
2020/12/06 02:32:03;;;;;;;19.37;6.50;;;;;;;-4.41;50.86;102770.00;1779113;79;21231;-74
2020/12/06 02:34:31;;;;;;;20.80;7.85;;;;;;;-4.42;50.74;102779.80;1768040;80;20936;-75
2020/12/06 02:36:59;;;;;;;17.30;7.92;;;;;;;-4.49;50.80;102773.58;1767898;80;20959;-74
2020/12/06 02:39:27;;;;;;;35.23;14.33;;;;;;;-4.53;50.85;102778.12;1768032;80;21481;-74
2020/12/06 02:41:56;;;;;;;27.15;9.88;;;;;;;-4.57;50.73;102786.49;1768053;80;20980;-74
2020/12/06 02:44:24;;;;;;;15.35;6.90;;;;;;;-4.63;50.70;102782.00;1767817;80;21035;-74
2020/12/06 02:46:52;;;;;;;22.67;9.05;;;;;;;-4.72;51.02;102782.94;1768009;80;21414;-74
2020/12/06 02:49:20;;;;;;;18.87;8.53;;;;;;;-4.77;51.26;102785.74;1768048;80;20956;-74
2020/12/06 02:51:48;;;;;;;16.07;6.62;;;;;;;-4.81;51.63;102787.30;1767847;80;21094;-74
2020/12/06 02:54:17;;;;;;;12.60;7.05;;;;;;;-4.79;51.71;102797.61;1767942;80;21018;-74
2020/12/06 02:56:45;;;;;;;11.25;5.87;;;;;;;-4.81;51.66;102793.70;1767777;80;21175;-74
2020/12/06 02:59:13;;;;;;;12.37;5.70;;;;;;;-4.80;52.23;102797.16;1767991;80;21015;-75
2020/12/06 03:01:41;;;;;;;11.50;6.00;;;;;;;-4.80;52.31;102802.27;1767959;80;20944;-74
2020/12/06 03:04:11;;;;;;;12.15;5.40;;;;;;;-4.83;52.61;102796.60;1767910;80;20967;-74
2020/12/06 03:06:39;;;;;;;11.15;4.58;;;;;;;-4.81;52.40;102802.66;1767939;80;20960;-73
2020/12/06 03:09:07;;;;;;;9.40;4.55;;;;;;;-4.83;52.34;102804.69;1767991;80;22300;-74
2020/12/06 03:11:34;;;;;;;10.48;5.33;;;;;;;-4.87;52.35;102809.22;1767938;80;21023;-75
2020/12/06 03:14:03;;;;;;;19.02;5.83;;;;;;;-4.92;52.43;102809.45;1768440;80;21512;-74
2020/12/06 03:16:31;;;;;;;12.82;7.10;;;;;;;-4.96;52.60;102807.17;1792865;79;20932;-73
2020/12/06 03:18:59;;;;;;;16.07;5.22;;;;;;;-5.01;52.82;102804.44;1767888;80;20967;-74
2020/12/06 03:21:27;;;;;;;9.88;5.75;;;;;;;-5.05;53.01;102810.66;1768011;80;21987;-74
2020/12/06 03:23:55;;;;;;;11.35;5.72;;;;;;;-5.13;52.88;102810.36;1767899;80;21046;-75
2020/12/06 03:26:23;;;;;;;20.30;6.37;;;;;;;-5.15;53.03;102812.40;1767802;80;21046;-74
2020/12/06 03:28:51;;;;;;;10.18;5.17;;;;;;;-5.15;53.05;102811.12;1767914;80;20924;-74
2020/12/06 03:31:19;;;;;;;14.58;6.83;;;;;;;-5.13;53.03;102809.09;1767681;80;20948;-74
2020/12/06 03:33:47;;;;;;;11.80;5.72;;;;;;;-5.13;53.07;102817.17;1760019;80;22364;-75
2020/12/06 03:36:15;;;;;;;16.73;6.85;;;;;;;-5.15;53.11;102809.43;1745920;80;20969;-76
2020/12/06 03:38:43;;;;;;;10.98;5.97;;;;;;;-5.14;53.16;102818.83;1745201;81;21515;-77
2020/12/06 03:41:12;;;;;;;15.48;7.12;;;;;;;-5.12;53.21;102817.63;1745226;81;21407;-75
2020/12/06 03:43:40;;;;;;;19.45;7.20;;;;;;;-5.13;53.08;102821.88;1745257;81;21514;-77
2020/12/06 03:47:47;;;;;;;13.60;5.50;;;;;;;-5.12;52.91;102811.23;1777339;79;22843;-77
2020/12/06 03:50:17;;;;;;;9.83;5.15;;;;;;;-5.21;52.98;102815.16;1720179;82;20955;-78
2020/12/06 03:52:47;;;;;;;10.45;4.87;;;;;;;-5.26;53.28;102803.02;1749755;81;20971;-76
2020/12/06 03:55:16;;;;;;;15.60;6.25;;;;;;;-5.26;53.24;102810.69;1720204;82;20928;-78
2020/12/06 03:57:44;;;;;;;10.10;5.92;;;;;;;-5.26;53.24;102808.12;1749833;82;20995;-77
2020/12/06 04:00:12;;;;;;;10.88;6.03;;;;;;;-5.30;53.31;102813.51;1719990;82;21058;-77
2020/12/06 04:02:40;;;;;;;11.33;5.95;;;;;;;-5.32;53.59;102813.84;1718922;82;21047;-76
2020/12/06 04:05:09;;;;;;;12.63;5.83;;;;;;;-5.33;53.27;102818.92;1720291;82;21165;-76
2020/12/06 04:07:38;;;;;;;10.35;5.42;;;;;;;-5.39;53.68;102829.75;1719987;82;20955;-75
2020/12/06 04:10:06;;;;;;;12.25;5.72;;;;;;;-5.44;53.61;102815.92;1720375;82;20928;-77
2020/12/06 04:12:35;;;;;;;11.25;6.03;;;;;;;-5.48;53.77;102822.58;1720010;82;20955;-76
2020/12/06 04:15:05;;;;;;;12.47;5.15;;;;;;;-5.52;53.89;102837.31;1720128;82;21023;-76
2020/12/06 04:17:33;;;;;;;12.65;6.70;;;;;;;-5.58;53.98;102829.80;1720093;82;21169;-77
2020/12/06 04:20:01;;;;;;;10.93;6.03;;;;;;;-5.65;54.14;102837.61;1719966;82;21460;-77
2020/12/06 04:22:30;;;;;;;18.45;7.17;;;;;;;-5.70;54.28;102828.47;1720061;82;21397;-76
2020/12/06 04:25:00;;;;;;;10.00;5.55;;;;;;;-5.69;54.62;102826.40;1749682;82;21480;-77
2020/12/06 04:27:29;;;;;;;12.75;5.53;;;;;;;-5.70;54.44;102832.30;1719904;82;20951;-77
2020/12/06 04:29:57;;;;;;;11.10;5.42;;;;;;;-5.73;54.46;102844.09;1720014;82;21650;-77
2020/12/06 04:32:25;;;;;;;8.38;5.30;;;;;;;-5.78;54.57;102837.51;1718689;82;21390;-77
2020/12/06 04:34:54;;;;;;;9.28;4.92;;;;;;;-5.82;54.65;102853.51;1719993;82;20975;-75
2020/12/06 04:37:22;;;;;;;12.43;5.75;;;;;;;-5.88;54.90;102836.63;1720240;82;21002;-75
2020/12/06 04:39:50;;;;;;;13.18;5.53;;;;;;;-5.93;55.10;102844.09;1720972;82;21002;-76
2020/12/06 04:42:20;;;;;;;18.12;7.47;;;;;;;-5.99;55.38;102846.41;1720057;82;21053;-75
2020/12/06 04:44:49;;;;;;;17.75;7.20;;;;;;;-6.05;55.59;102844.47;1719958;82;20979;-74
2020/12/06 04:47:35;;;;;;;13.60;6.92;;;;;;;-6.06;55.70;102842.70;1727043;81;20951;-76
2020/12/06 04:50:04;;;;;;;14.73;7.10;;;;;;;-6.05;55.72;102841.92;1715930;81;21006;-77
2020/12/06 04:52:38;;;;;;;17.40;7.30;;;;;;;-6.01;55.64;102845.46;1728751;81;21057;-77
2020/12/06 04:55:06;;;;;;;11.80;6.40;;;;;;;-6.00;55.53;102851.44;1729798;81;22195;-78
2020/12/06 04:57:34;;;;;;;15.60;7.65;;;;;;;-6.00;55.58;102847.23;1730102;81;21583;-77
2020/12/06 05:00:06;;;;;;;12.60;6.75;;;;;;;-5.99;55.58;102856.63;1705892;81;21015;-79
2020/12/06 05:02:39;;;;;;;17.73;7.00;;;;;;;-5.99;55.73;102859.17;1728515;81;20958;-74
2020/12/06 05:05:08;;;;;;;14.87;6.37;;;;;;;-5.96;55.64;102859.71;1731187;81;20963;-75
2020/12/06 05:07:37;;;;;;;16.20;6.80;;;;;;;-5.97;55.77;102861.40;1729250;81;21179;-76
2020/12/06 05:10:05;;;;;;;13.48;7.42;;;;;;;-5.96;55.45;102864.82;1729697;81;20978;-79
2020/12/06 05:12:34;;;;;;;16.15;6.92;;;;;;;-5.98;55.48;102866.43;1729589;81;21066;-77
2020/12/06 05:15:02;;;;;;;13.78;6.72;;;;;;;-6.04;55.68;102861.94;1728362;81;21014;-78
2020/12/06 05:17:31;;;;;;;15.32;6.45;;;;;;;-6.06;55.85;102865.70;1729597;81;20971;-76
2020/12/06 05:20:11;;;;;;;19.17;7.50;;;;;;;-6.06;55.73;102865.70;1728379;81;21397;-77
2020/12/06 05:22:48;;;;;;;14.65;7.80;;;;;;;-6.07;55.94;102861.78;1728599;81;20967;-75
2020/12/06 05:25:15;;;;;;;9.85;5.72;;;;;;;-6.02;56.12;102868.38;1729669;81;21413;-77
2020/12/06 05:27:43;;;;;;;14.87;8.00;;;;;;;-5.99;55.89;102870.67;1728475;81;21152;-77
2020/12/06 05:30:11;;;;;;;17.40;7.47;;;;;;;-5.98;55.73;102862.59;1729838;81;21440;-79
2020/12/06 05:32:40;;;;;;;13.15;7.12;;;;;;;-5.98;55.73;102869.88;1729682;81;21037;-77
2020/12/06 05:35:09;;;;;;;16.00;7.78;;;;;;;-5.96;55.41;102873.76;1729613;80;21042;-76
2020/12/06 05:37:39;;;;;;;13.30;6.83;;;;;;;-6.00;55.47;102871.88;1728452;81;20919;-76
2020/12/06 05:40:13;;;;;;;13.45;6.35;;;;;;;-6.00;55.50;102874.42;1729605;80;20962;-77
2020/12/06 05:42:42;;;;;;;11.85;6.83;;;;;;;-5.99;55.53;102874.91;1680961;81;21130;-77
2020/12/06 05:45:11;;;;;;;13.22;8.35;;;;;;;-6.02;55.38;102877.31;1678038;84;21527;-76
2020/12/06 05:47:39;;;;;;;16.90;7.08;;;;;;;-6.06;55.60;102875.91;1678509;84;20980;-77
2020/12/06 05:50:07;;;;;;;13.85;7.37;;;;;;;-6.11;55.83;102879.95;1678202;84;20949;-77
2020/12/06 05:52:35;;;;;;;15.18;7.58;;;;;;;-6.07;56.04;102876.73;1678312;83;21500;-78
2020/12/06 05:55:03;;;;;;;14.80;7.20;;;;;;;-6.00;55.84;102884.64;1678642;84;20988;-77
2020/12/06 05:57:33;;;;;;;14.07;6.30;;;;;;;-5.97;55.81;102883.11;1678995;82;21781;-77
2020/12/06 06:00:03;;;;;;;18.52;7.42;;;;;;;-5.91;55.65;102885.05;1681523;82;21075;-76
2020/12/06 06:02:32;;;;;;;14.40;7.03;;;;;;;-5.85;55.60;102896.78;1681366;83;20965;-77
2020/12/06 06:05:03;;;;;;;15.00;7.37;;;;;;;-5.88;55.25;102895.39;1681724;83;20945;-77
2020/12/06 06:07:31;;;;;;;17.75;7.42;;;;;;;-5.94;55.23;102895.97;1681212;82;21032;-77
2020/12/06 06:10:06;;;;;;;13.90;7.12;;;;;;;-5.97;55.25;102894.61;1659114;83;21661;-76
2020/12/06 06:12:34;;;;;;;11.68;5.58;;;;;;;-5.99;55.25;102883.44;1680804;84;21087;-77
2020/12/06 06:15:04;;;;;;;16.05;7.45;;;;;;;-5.93;55.31;102893.04;1678164;84;20989;-77
2020/12/06 06:17:32;;;;;;;19.80;7.83;;;;;;;-5.95;55.17;102897.23;1678222;84;20980;-77
2020/12/06 06:20:02;;;;;;;13.95;7.50;;;;;;;-5.99;55.35;102892.38;1706712;82;20956;-80
2020/12/06 06:22:38;;;;;;;14.43;7.37;;;;;;;-5.98;55.52;102894.15;1678160;82;21031;-78
2020/12/06 06:25:06;;;;;;;15.25;7.75;;;;;;;-5.95;55.56;102889.58;1678025;84;21644;-80
2020/12/06 06:27:37;;;;;;;17.67;5.95;;;;;;;-5.90;55.68;102895.30;1678063;82;21035;-77
2020/12/06 06:30:10;;;;;;;12.10;6.28;;;;;;;-5.87;55.04;102895.47;1678081;84;21430;-76
2020/12/06 06:32:38;;;;;;;17.90;8.38;;;;;;;-5.87;54.81;102899.30;1678154;84;21570;-76
2020/12/06 06:35:08;;;;;;;14.05;7.40;;;;;;;-5.85;54.73;102909.56;1678207;82;21585;-76
2020/12/06 06:37:37;;;;;;;11.75;6.25;;;;;;;-5.85;54.37;102901.90;1678156;83;21052;-78
2020/12/06 06:40:09;;;;;;;11.83;5.83;;;;;;;-5.88;54.53;102896.25;1678131;82;21060;-79
2020/12/06 06:42:38;;;;;;;17.57;7.08;;;;;;;-5.88;54.28;102892.83;1686250;83;20992;-81
2020/12/06 06:45:09;;;;;;;8.28;5.78;;;;;;;-5.87;54.57;102886.52;1706708;81;21062;-77
2020/12/06 06:47:40;;;;;;;12.90;7.45;;;;;;;-5.86;54.48;102883.15;1791616;80;21467;-80
2020/12/06 06:50:10;;;;;;;15.50;7.55;;;;;;;-5.77;54.69;102890.75;1764761;80;20969;-78
2020/12/06 06:52:42;;;;;;;7.83;5.30;;;;;;;-5.66;54.19;102885.70;1764392;80;21093;-78
2020/12/06 06:55:10;;;;;;;14.70;7.37;;;;;;;-5.60;53.97;102892.75;1765400;80;20966;-77
2020/12/06 06:57:41;;;;;;;11.00;5.33;;;;;;;-5.57;54.03;102888.66;1765005;80;21022;-77
2020/12/06 07:00:10;;;;;;;14.23;6.55;;;;;;;-5.52;53.53;102901.22;1765007;80;21171;-80
2020/12/06 07:02:40;;;;;;;14.47;7.25;;;;;;;-5.52;53.28;102884.60;1765258;80;21045;-79
2020/12/06 07:05:17;;;;;;;11.28;5.95;;;;;;;-5.55;53.35;102881.06;1765347;80;21106;-80
2020/12/06 07:07:51;;;;;;;11.22;6.40;;;;;;;-5.53;53.33;102881.59;1765113;80;20970;-78
2020/12/06 07:10:24;;;;;;;12.43;6.37;;;;;;;-5.49;53.16;102883.85;1765223;80;21032;-78
2020/12/06 07:12:56;;;;;;;12.00;7.20;;;;;;;-5.48;53.12;102882.66;1765029;80;21013;-79
2020/12/06 07:15:27;;;;;;;12.47;5.90;;;;;;;-5.43;53.24;102879.01;1765291;80;20958;-78
2020/12/06 07:17:57;;;;;;;15.68;6.53;;;;;;;-5.32;52.91;102882.02;1764707;80;20958;-76
2020/12/06 07:20:26;;;;;;;9.08;6.08;;;;;;;-5.28;52.51;102874.95;1764642;80;20958;-77
2020/12/06 07:22:56;;;;;;;16.17;6.33;;;;;;;-5.24;52.37;102880.26;1765015;80;20943;-78
2020/12/06 07:25:24;;;;;;;13.48;8.03;;;;;;;-5.22;52.10;102878.64;1764943;80;21961;-77
2020/12/06 07:27:53;;;;;;;21.93;7.65;;;;;;;-5.17;52.14;102883.08;1764814;80;21105;-77
2020/12/06 07:30:21;;;;;;;14.05;6.47;;;;;;;-5.18;52.31;102875.78;1764927;80;21006;-76
2020/12/06 07:32:50;;;;;;;18.85;7.72;;;;;;;-5.16;52.60;102875.44;1765038;80;21586;-78
2020/12/06 07:35:23;;;;;;;15.00;7.35;;;;;;;-5.11;52.57;102877.80;1764963;80;21065;-76
2020/12/06 07:37:48;;;;;;;14.90;7.22;;;;;;;-5.10;52.71;102875.70;1790808;80;21481;-75
2020/12/06 07:40:16;;;;;;;24.23;8.55;;;;;;;-5.06;52.49;102880.55;1740255;80;20973;-76
2020/12/06 07:42:44;;;;;;;17.92;8.98;;;;;;;-5.03;52.26;102884.50;1765019;80;20969;-77
2020/12/06 07:45:12;;;;;;;16.50;7.83;;;;;;;-5.05;52.36;102878.03;1762196;80;20907;-78
2020/12/06 07:47:40;;;;;;;16.80;8.43;;;;;;;-5.02;52.44;102890.97;1759841;80;21006;-77
2020/12/06 07:50:08;;;;;;;18.62;8.70;;;;;;;-4.99;52.46;102888.94;1759659;80;22060;-77
2020/12/06 07:52:39;;;;;;;24.23;9.83;;;;;;;-4.97;52.49;102882.61;1760041;80;20931;-78
2020/12/06 07:55:10;;;;;;;25.57;9.48;;;;;;;-4.90;52.50;102887.16;1779911;79;21074;-76
2020/12/06 07:57:52;;;;;;;27.17;8.43;;;;;;;-4.83;52.31;102883.61;1759547;80;21049;-75
2020/12/06 08:00:21;;;;;;;16.48;7.60;;;;;;;-4.73;51.90;102894.24;1759891;80;21037;-78
2020/12/06 08:02:55;;;;;;;14.53;8.23;;;;;;;-4.65;51.76;102883.87;1759806;80;21047;-77
2020/12/06 08:05:25;;;;;;;20.20;7.75;;;;;;;-4.57;51.39;102881.22;1760242;80;20927;-85
2020/12/06 08:08:06;;;;;;;13.83;7.12;;;;;;;-4.48;51.12;102886.69;1760569;80;21079;-84
2020/12/06 08:10:35;;;;;;;21.20;8.80;;;;;;;-4.43;51.06;102883.02;1761021;80;20955;-85
2020/12/06 08:13:03;;;;;;;20.00;8.38;;;;;;;-4.41;50.98;102888.66;1760744;80;21364;-83
2020/12/06 08:15:31;;;;;;;18.32;7.20;;;;;;;-4.37;51.12;102887.11;1737913;80;21008;-83
2020/12/06 08:18:02;;;;;;;15.05;8.63;;;;;;;-4.33;50.93;102882.98;1762589;80;21060;-86
2020/12/06 08:20:30;;;;;;;15.23;6.62;;;;;;;-4.26;50.85;102879.83;1761144;80;21052;-86
2020/12/06 08:22:59;;;;;;;17.05;8.13;;;;;;;-4.21;50.71;102881.73;1760365;80;21034;-86
2020/12/06 08:25:31;;;;;;;18.27;8.23;;;;;;;-4.18;50.84;102872.91;1760436;80;21008;-86
2020/12/06 08:28:02;;;;;;;21.73;8.85;;;;;;;-4.14;50.34;102873.87;1761055;80;21229;-87
2020/12/06 08:30:31;;;;;;;16.73;8.13;;;;;;;-4.09;50.57;102874.94;1760410;80;21439;-86
2020/12/06 08:33:01;;;;;;;20.23;9.43;;;;;;;-4.01;50.24;102877.77;1761037;80;21021;-86
2020/12/06 08:35:50;;;;;;;17.25;6.78;;;;;;;-3.94;49.63;102879.73;1761124;80;21026;-89
2020/12/06 08:38:25;;;;;;;12.33;7.40;;;;;;;-3.91;49.52;102878.95;1761166;80;21049;-87
2020/12/06 08:41:05;;;;;;;18.75;7.65;;;;;;;-3.87;49.41;102883.38;1761287;80;21133;-91
2020/12/06 08:43:52;;;;;;;15.25;7.50;;;;;;;-3.83;49.27;102880.12;1760848;80;20981;-86
2020/12/06 08:46:25;;;;;;;16.87;8.40;;;;;;;-3.82;49.21;102877.63;1766977;80;21040;-85
2020/12/06 08:48:56;;;;;;;18.92;7.45;;;;;;;-3.77;49.31;102870.95;1768880;80;20966;-82
2020/12/06 08:51:40;;;;;;;17.02;6.92;;;;;;;-3.67;49.01;102862.30;1768976;80;20978;-86
2020/12/06 08:54:07;;;;;;;16.30;7.83;;;;;;;-3.60;48.64;102868.09;1794164;80;21178;-79
2020/12/06 08:56:40;;;;;;;13.08;6.80;;;;;;;-3.56;48.74;102859.31;1767811;80;21431;-83
2020/12/06 08:59:15;;;;;;;11.88;7.37;;;;;;;-3.50;50.75;102858.63;1768386;80;21026;-87
2020/12/06 09:01:50;;;;;;;18.50;8.18;;;;;;;-3.40;48.72;102858.52;1768329;80;20958;-81
2020/12/06 09:04:18;;;;;;;18.07;7.33;;;;;;;-3.34;48.23;102855.75;1768453;80;21049;-82
2020/12/06 09:06:46;;;;;;;14.65;7.28;;;;;;;-3.28;47.87;102861.52;1767800;80;21238;-82
2020/12/06 09:09:15;;;;;;;12.63;6.37;;;;;;;-3.29;48.09;102849.52;1768042;80;20962;-79
2020/12/06 09:11:48;;;;;;;14.10;7.25;;;;;;;-3.24;47.88;102852.23;1767566;80;21507;-81
2020/12/06 09:14:14;;;;;;;12.98;7.60;;;;;;;-3.21;47.48;102839.50;1793927;79;20957;-79
2020/12/06 09:16:43;;;;;;;11.93;7.10;;;;;;;-3.20;47.49;102845.08;1767751;80;20950;-82
2020/12/06 09:19:11;;;;;;;14.85;7.75;;;;;;;-3.13;47.39;102840.63;1767740;80;21215;-81
2020/12/06 09:21:40;;;;;;;18.40;8.30;;;;;;;-3.09;47.13;102840.30;1767258;80;20937;-79
2020/12/06 09:24:08;;;;;;;17.52;7.10;;;;;;;-3.02;47.12;102830.30;1767644;80;21076;-78
2020/12/06 09:26:36;;;;;;;16.73;7.50;;;;;;;-2.97;46.88;102824.02;1767489;80;20914;-79
2020/12/06 09:29:12;;;;;;;12.68;6.80;;;;;;;-2.89;46.47;102827.70;1767665;80;21024;-79
2020/12/06 09:31:41;;;;;;;14.00;5.90;;;;;;;-2.85;46.26;102817.10;1768177;80;21395;-78
2020/12/06 09:34:09;;;;;;;11.22;6.30;;;;;;;-2.79;46.04;102815.59;1768088;80;21061;-79
2020/12/06 09:36:42;;;;;;;13.18;6.22;;;;;;;-2.74;46.09;102811.88;1767689;79;21067;-77
2020/12/06 09:39:12;;;;;;;16.77;7.03;;;;;;;-2.71;45.73;102814.56;1767739;80;21041;-78
2020/12/06 09:41:46;;;;;;;15.45;6.95;;;;;;;-2.72;45.70;102800.83;1767863;80;21017;-77
2020/12/06 09:44:14;;;;;;;13.50;6.33;;;;;;;-2.62;45.23;102802.41;1767884;80;21954;-76
2020/12/06 09:46:44;;;;;;;15.13;7.35;;;;;;;-2.61;44.66;102805.00;1765765;80;21148;-80
2020/12/06 09:49:19;;;;;;;11.03;6.45;;;;;;;-2.63;45.09;102803.22;1786272;80;20958;-80
2020/12/06 09:51:51;;;;;;;13.32;6.55;;;;;;;-2.61;45.30;102802.86;1766483;80;20963;-79
2020/12/06 09:54:19;;;;;;;13.98;6.62;;;;;;;-2.57;45.28;102800.42;1766688;80;20998;-83
2020/12/06 09:56:48;;;;;;;13.85;7.42;;;;;;;-2.52;45.39;102786.00;1768269;79;21169;-87
2020/12/06 09:59:16;;;;;;;10.88;6.37;;;;;;;-2.51;45.40;102785.20;1768112;79;20963;-83
2020/12/06 10:01:44;;;;;;;13.15;6.83;;;;;;;-2.45;45.26;102790.05;1767154;80;20914;-81
2020/12/06 10:04:13;;;;;;;11.10;6.12;;;;;;;-2.46;45.39;102784.05;1765859;80;21372;-80
2020/12/06 10:06:41;;;;;;;12.05;7.90;;;;;;;-2.44;45.33;102778.53;1764782;80;20986;-84
2020/12/06 10:09:09;;;;;;;14.83;8.03;;;;;;;-2.43;45.41;102785.41;1765559;80;20994;-81
2020/12/06 10:11:37;;;;;;;14.30;6.53;;;;;;;-2.42;45.52;102775.60;1765244;80;20946;-82
2020/12/06 10:14:05;;;;;;;10.50;6.05;;;;;;;-2.37;45.13;102783.44;1765241;80;21132;-80
2020/12/06 10:16:33;;;;;;;14.45;6.03;;;;;;;-2.32;44.73;102775.02;1765195;80;20951;-81
2020/12/06 10:19:02;;;;;;;9.25;5.35;;;;;;;-2.28;44.94;102771.27;1765286;80;21009;-79
2020/12/06 10:21:31;;;;;;;14.20;7.03;;;;;;;-2.26;44.92;102774.75;1785561;80;21544;-83
2020/12/06 10:23:59;;;;;;;14.58;7.17;;;;;;;-2.23;45.09;102768.39;1766005;80;21013;-81
2020/12/06 10:26:27;;;;;;;23.18;11.53;;;;;;;-2.19;44.83;102764.67;1765431;80;21396;-81
2020/12/06 10:29:03;;;;;;;11.60;7.25;;;;;;;-2.12;44.80;102761.84;1765711;80;21384;-84
2020/12/06 10:31:31;;;;;;;14.30;7.47;;;;;;;-2.02;44.38;102761.28;1765608;80;21009;-83
2020/12/06 10:33:59;;;;;;;13.22;6.78;;;;;;;-1.99;44.15;102765.63;1765395;80;20974;-82
2020/12/06 10:36:28;;;;;;;9.45;5.95;;;;;;;-1.96;44.53;102756.70;1765095;80;21037;-82
2020/12/06 10:38:57;;;;;;;11.80;8.15;;;;;;;-1.90;44.49;102751.72;1764965;80;20958;-82
2020/12/06 10:41:26;;;;;;;13.43;7.03;;;;;;;-1.88;44.64;102752.63;1764821;80;21113;-82
2020/12/06 10:43:55;;;;;;;14.93;6.67;;;;;;;-1.80;44.18;102751.53;1765137;80;21383;-82
2020/12/06 10:46:27;;;;;;;10.35;5.05;;;;;;;-1.74;43.81;102757.70;1767152;80;22712;-84
2020/12/06 10:48:55;;;;;;;15.58;5.37;;;;;;;-1.70;43.72;102755.66;1767756;80;21383;-81
2020/12/06 10:51:24;;;;;;;10.40;4.67;;;;;;;-1.63;43.81;102754.54;1767533;80;21055;-82
2020/12/06 10:53:52;;;;;;;12.20;6.30;;;;;;;-1.60;43.96;102758.46;1767849;80;21595;-83
2020/12/06 10:56:30;;;;;;;13.22;6.22;;;;;;;-1.54;43.74;102741.90;1764392;80;21503;31
2020/12/06 10:59:00;;;;;;;19.57;8.55;;;;;;;-1.52;43.88;102744.95;1644799;85;22370;-84
2020/12/06 11:01:31;;;;;;;13.70;5.17;;;;;;;-1.49;44.09;102732.19;1661232;85;21026;-85
2020/12/06 11:04:00;;;;;;;10.72;5.78;;;;;;;-1.42;44.34;102734.48;1638708;86;21413;-84
2020/12/06 11:06:28;;;;;;;16.57;6.33;;;;;;;-1.39;44.30;102737.12;1661150;85;20991;-83
2020/12/06 11:08:57;;;;;;;11.88;6.42;;;;;;;-1.32;44.46;102733.85;1661097;85;21050;-85
2020/12/06 11:11:27;;;;;;;11.70;6.22;;;;;;;-1.29;44.85;102731.77;1661252;85;21073;-85
2020/12/06 11:13:55;;;;;;;16.27;6.60;;;;;;;-1.25;45.28;102733.58;1661123;85;21049;-85
2020/12/06 11:16:23;;;;;;;16.15;5.83;;;;;;;-1.23;45.29;102733.62;1661238;85;21420;-84
2020/12/06 11:18:51;;;;;;;15.25;6.95;;;;;;;-1.21;45.54;102717.80;1661075;85;20959;-85
2020/12/06 11:21:20;;;;;;;10.25;5.33;;;;;;;-1.20;45.82;102719.13;1660946;85;20979;-83
2020/12/06 11:23:49;;;;;;;12.18;6.25;;;;;;;-1.14;46.05;102716.67;1661255;86;22638;-84
2020/12/06 11:26:17;;;;;;;10.65;5.40;;;;;;;-1.09;46.42;102720.63;1661457;85;21136;-88
2020/12/06 11:28:46;;;;;;;12.53;5.87;;;;;;;-1.05;46.41;102722.02;1661381;85;21511;-85